createdAt,value
2023-01-06T00:01:25.074Z,11.90
2023-01-06T00:03:54.902Z,11.90
2023-01-06T00:06:27.541Z,11.90
2023-01-06T00:08:56.415Z,11.90
2023-01-06T00:11:25.264Z,11.90
2023-01-06T00:13:53.613Z,11.90
2023-01-06T00:16:22.089Z,11.80
2023-01-06T00:18:50.134Z,11.80
2023-01-06T00:21:18.233Z,11.80
2023-01-06T00:23:47.661Z,11.80
2023-01-06T00:26:15.631Z,11.80
2023-01-06T00:28:45.255Z,11.80
2023-01-06T00:31:15.007Z,11.70
2023-01-06T00:33:44.049Z,11.70
2023-01-06T00:36:13.797Z,11.70
2023-01-06T00:38:43.560Z,11.70
2023-01-06T00:41:28.501Z,11.70
2023-01-06T00:43:57.246Z,11.70
2023-01-06T00:46:28.850Z,11.70
2023-01-06T00:49:06.679Z,11.80
2023-01-06T00:51:36.363Z,11.80
2023-01-06T00:54:05.026Z,11.90
2023-01-06T00:56:37.118Z,11.90
2023-01-06T00:59:05.686Z,11.90
2023-01-06T01:01:34.375Z,11.90
2023-01-06T01:04:02.768Z,11.90
2023-01-06T01:06:30.763Z,11.90
2023-01-06T01:09:00.401Z,11.90
2023-01-06T01:11:46.341Z,11.90
2023-01-06T01:14:18.312Z,11.90
2023-01-06T01:16:46.697Z,11.90
2023-01-06T01:19:15.257Z,12.00
2023-01-06T01:21:43.913Z,11.90
2023-01-06T01:24:12.125Z,11.90
2023-01-06T01:26:41.796Z,11.90
2023-01-06T01:29:12.678Z,11.90
2023-01-06T01:31:42.488Z,11.90
2023-01-06T01:34:12.140Z,11.90
2023-01-06T01:36:42.136Z,11.90
2023-01-06T01:39:11.606Z,11.90
2023-01-06T01:41:39.793Z,12.00
2023-01-06T01:44:41.787Z,12.00
2023-01-06T01:47:12.878Z,11.90
2023-01-06T01:49:44.736Z,12.00
2023-01-06T01:52:14.327Z,12.00
2023-01-06T01:54:44.108Z,12.00
2023-01-06T01:57:16.019Z,12.00
2023-01-06T01:59:45.967Z,12.00
2023-01-06T02:02:17.039Z,12.00
2023-01-06T02:04:52.402Z,12.00
2023-01-06T02:07:22.721Z,12.00
2023-01-06T02:09:57.581Z,11.90
2023-01-06T02:12:25.615Z,12.00
2023-01-06T02:14:53.728Z,12.00
2023-01-06T02:17:48.674Z,11.90
2023-01-06T02:20:36.941Z,11.90
2023-01-06T02:23:41.199Z,11.90
2023-01-06T02:26:35.792Z,11.90
2023-01-06T02:29:45.737Z,11.80
2023-01-06T02:32:26.757Z,11.80
2023-01-06T02:35:08.039Z,11.80
2023-01-06T02:37:47.044Z,11.80
2023-01-06T02:40:29.505Z,11.80
2023-01-06T02:43:12.122Z,11.80
2023-01-06T02:45:50.796Z,11.90
2023-01-06T02:48:32.523Z,11.80
2023-01-06T02:51:07.878Z,11.80
2023-01-06T02:53:44.964Z,11.80
2023-01-06T02:56:13.465Z,11.80
2023-01-06T02:58:48.079Z,11.80
2023-01-06T03:01:19.818Z,11.80
2023-01-06T03:03:53.150Z,11.80
2023-01-06T03:06:30.760Z,11.80
2023-01-06T03:09:01.687Z,11.80
2023-01-06T03:11:35.423Z,11.80
2023-01-06T03:14:07.478Z,11.80
2023-01-06T03:16:35.832Z,11.80
2023-01-06T03:19:05.807Z,11.80
2023-01-06T03:21:39.508Z,11.80
2023-01-06T03:24:10.569Z,11.80
2023-01-06T03:26:41.107Z,11.80
2023-01-06T03:29:13.183Z,11.70
2023-01-06T03:31:53.634Z,11.80
2023-01-06T03:34:35.636Z,11.80
2023-01-06T03:37:11.866Z,11.80
2023-01-06T03:39:48.923Z,11.80
2023-01-06T03:42:45.229Z,11.80
2023-01-06T03:45:32.835Z,11.90
2023-01-06T03:48:06.075Z,11.90
2023-01-06T03:50:42.143Z,11.90
2023-01-06T03:53:24.811Z,11.90
2023-01-06T03:56:03.318Z,11.90
2023-01-06T03:58:32.172Z,11.90
2023-01-06T04:01:01.253Z,11.90
2023-01-06T04:03:29.367Z,11.80
2023-01-06T04:05:58.947Z,11.90
2023-01-06T04:08:27.536Z,11.90
2023-01-06T04:10:56.543Z,11.90
2023-01-06T04:13:23.618Z,11.80
2023-01-06T04:15:51.734Z,11.80
2023-01-06T04:18:20.073Z,11.80
2023-01-06T04:20:49.176Z,11.70
2023-01-06T04:23:23.313Z,11.70
2023-01-06T04:25:52.173Z,11.80
2023-01-06T04:28:28.010Z,11.80
2023-01-06T04:30:58.862Z,11.80
2023-01-06T04:33:27.791Z,11.80
2023-01-06T04:35:59.992Z,11.70
2023-01-06T04:38:29.462Z,11.70
2023-01-06T04:40:57.628Z,11.70
2023-01-06T04:43:25.629Z,11.70
2023-01-06T04:45:53.698Z,11.70
2023-01-06T04:48:21.773Z,11.70
2023-01-06T04:50:49.735Z,11.70
2023-01-06T04:53:17.783Z,11.70
2023-01-06T04:55:47.079Z,11.70
2023-01-06T04:58:15.050Z,11.80
2023-01-06T05:00:43.085Z,11.70
2023-01-06T05:03:11.228Z,11.80
2023-01-06T05:05:39.532Z,11.80
2023-01-06T05:08:07.519Z,11.80
2023-01-06T05:10:35.712Z,11.80
2023-01-06T05:13:05.102Z,11.90
2023-01-06T05:15:33.078Z,11.80
2023-01-06T05:18:01.081Z,11.80
2023-01-06T05:20:29.038Z,11.80
2023-01-06T05:22:57.079Z,11.80
2023-01-06T05:25:25.076Z,11.90
2023-01-06T05:27:53.085Z,11.90
2023-01-06T05:30:22.593Z,11.90
2023-01-06T05:32:50.652Z,11.90
2023-01-06T05:35:20.522Z,11.90
2023-01-06T05:37:48.532Z,11.90
2023-01-06T05:40:16.604Z,11.90
2023-01-06T05:42:44.579Z,11.90
2023-01-06T05:45:13.071Z,11.90
2023-01-06T05:47:42.461Z,11.90
2023-01-06T05:50:10.560Z,11.90
2023-01-06T05:52:38.595Z,11.90
2023-01-06T05:55:07.442Z,11.90
2023-01-06T05:57:36.410Z,11.90
2023-01-06T06:00:05.668Z,11.90
2023-01-06T06:02:40.077Z,11.90
2023-01-06T06:05:10.054Z,11.90
2023-01-06T06:07:38.267Z,11.90
2023-01-06T06:10:07.909Z,11.90
2023-01-06T06:12:35.960Z,11.90
2023-01-06T06:15:04.573Z,12.00
2023-01-06T06:17:32.873Z,12.00
2023-01-06T06:20:00.877Z,11.90
2023-01-06T06:22:30.231Z,11.90
2023-01-06T06:24:58.265Z,11.90
2023-01-06T06:27:27.210Z,11.90
2023-01-06T06:29:55.281Z,11.90
2023-01-06T06:32:23.255Z,11.80
2023-01-06T06:34:51.351Z,11.80
2023-01-06T06:37:19.381Z,11.90
2023-01-06T06:39:48.741Z,11.90
2023-01-06T06:42:16.761Z,11.80
2023-01-06T06:44:44.720Z,11.80
2023-01-06T06:47:14.240Z,11.90
2023-01-06T06:49:42.221Z,12.00
2023-01-06T06:52:10.209Z,12.00
2023-01-06T06:54:38.193Z,12.00
2023-01-06T06:57:07.562Z,12.00
2023-01-06T06:59:35.555Z,12.00
2023-01-06T07:02:03.733Z,12.00
2023-01-06T07:04:31.888Z,12.00
2023-01-06T07:06:59.992Z,12.00
2023-01-06T07:09:28.011Z,12.00
2023-01-06T07:11:56.027Z,12.00
2023-01-06T07:14:25.360Z,12.00
2023-01-06T07:16:53.363Z,12.00
2023-01-06T07:19:21.446Z,11.90
2023-01-06T07:21:49.460Z,11.90
2023-01-06T07:24:17.478Z,11.90
2023-01-06T07:26:45.499Z,11.90
2023-01-06T07:29:13.621Z,11.90
2023-01-06T07:31:42.990Z,11.90
2023-01-06T07:34:11.089Z,11.90
2023-01-06T07:36:39.164Z,11.90
2023-01-06T07:39:07.368Z,11.90
2023-01-06T07:41:35.421Z,11.90
2023-01-06T07:44:03.399Z,11.90
2023-01-06T07:46:31.466Z,11.90
2023-01-06T07:49:00.878Z,11.90
2023-01-06T07:51:28.846Z,11.90
2023-01-06T07:53:56.954Z,11.90
2023-01-06T07:56:25.086Z,11.90
2023-01-06T07:58:54.547Z,11.90
2023-01-06T08:01:22.803Z,11.80
2023-01-06T08:03:50.831Z,11.90
2023-01-06T08:06:20.184Z,11.90
2023-01-06T08:08:48.221Z,11.90
2023-01-06T08:11:16.217Z,12.00
2023-01-06T08:13:44.193Z,12.00
2023-01-06T08:16:12.671Z,11.90
2023-01-06T08:18:41.103Z,12.00
2023-01-06T08:21:11.231Z,12.00
2023-01-06T08:23:40.626Z,12.00
2023-01-06T08:26:10.302Z,12.00
2023-01-06T08:28:38.636Z,12.00
2023-01-06T08:31:10.609Z,12.00
2023-01-06T08:33:38.690Z,12.00
2023-01-06T08:36:08.846Z,12.00
2023-01-06T08:38:38.282Z,12.00
2023-01-06T08:41:07.780Z,12.00
2023-01-06T08:43:36.485Z,12.00
2023-01-06T08:46:07.446Z,12.00
2023-01-06T08:48:36.237Z,12.00
2023-01-06T08:51:06.302Z,12.00
2023-01-06T08:53:34.607Z,12.00
2023-01-06T08:56:02.921Z,12.10
2023-01-06T08:58:32.566Z,12.10
2023-01-06T09:01:00.598Z,12.10
2023-01-06T09:03:28.653Z,12.10
2023-01-06T09:05:57.515Z,12.10
2023-01-06T09:08:26.113Z,12.10
2023-01-06T09:10:54.147Z,12.10
2023-01-06T09:13:22.219Z,12.10
2023-01-06T09:15:52.668Z,12.10
2023-01-06T09:18:24.368Z,12.20
2023-01-06T09:20:52.453Z,12.20
2023-01-06T09:23:21.956Z,12.20
2023-01-06T09:25:49.952Z,12.20
2023-01-06T09:28:18.209Z,12.30
2023-01-06T09:30:48.936Z,12.40
2023-01-06T09:33:19.090Z,12.40
2023-01-06T09:35:47.638Z,12.50
2023-01-06T09:38:16.452Z,12.50
2023-01-06T09:40:56.474Z,12.60
2023-01-06T09:43:39.740Z,12.50
2023-01-06T09:46:11.372Z,12.60
2023-01-06T09:48:47.546Z,12.60
2023-01-06T09:51:21.425Z,12.60
2023-01-06T09:53:53.765Z,12.70
2023-01-06T09:56:25.729Z,12.70
2023-01-06T09:59:01.506Z,12.70
2023-01-06T10:01:33.740Z,12.60
2023-01-06T10:04:03.360Z,12.70
2023-01-06T10:06:36.993Z,12.60
2023-01-06T10:09:22.951Z,12.60
2023-01-06T10:12:02.596Z,12.60
2023-01-06T10:14:38.601Z,12.60
2023-01-06T10:17:26.079Z,12.60
2023-01-06T10:20:06.745Z,12.70
2023-01-06T10:22:47.036Z,12.70
2023-01-06T10:25:20.654Z,12.80
2023-01-06T10:27:53.433Z,12.80
2023-01-06T10:30:30.542Z,12.80
2023-01-06T10:32:59.558Z,12.80
2023-01-06T10:35:29.389Z,12.70
2023-01-06T10:37:59.782Z,12.70
2023-01-06T10:40:30.581Z,12.60
2023-01-06T10:43:03.807Z,12.60
2023-01-06T10:45:36.298Z,12.50
2023-01-06T10:48:05.829Z,12.50
2023-01-06T10:50:36.412Z,12.50
2023-01-06T10:53:05.603Z,12.50
2023-01-06T10:55:47.452Z,12.50
2023-01-06T10:58:26.556Z,12.50
2023-01-06T11:01:00.011Z,12.60
2023-01-06T11:03:33.833Z,12.60
2023-01-06T11:06:10.851Z,12.70
2023-01-06T11:08:40.674Z,12.80
2023-01-06T11:11:27.372Z,12.80
2023-01-06T11:13:58.722Z,12.90
2023-01-06T11:16:29.180Z,13.00
2023-01-06T11:18:59.804Z,13.00
2023-01-06T11:21:40.510Z,13.10
2023-01-06T11:24:17.645Z,13.10
2023-01-06T11:26:47.019Z,13.20
2023-01-06T11:29:20.232Z,13.20
2023-01-06T11:31:49.756Z,13.10
2023-01-06T11:34:23.672Z,13.10
2023-01-06T11:36:53.988Z,13.10
2023-01-06T11:39:28.005Z,13.00
2023-01-06T11:41:57.567Z,13.00
2023-01-06T11:44:32.424Z,13.10
2023-01-06T11:47:02.518Z,13.10
2023-01-06T11:49:35.304Z,13.00
2023-01-06T11:52:07.441Z,13.00
2023-01-06T11:54:38.641Z,13.10
2023-01-06T11:57:24.281Z,13.00
2023-01-06T12:00:19.830Z,13.00
2023-01-06T12:02:53.820Z,13.00
2023-01-06T12:05:30.990Z,12.90
2023-01-06T12:08:00.647Z,12.90
2023-01-06T12:10:33.736Z,12.80
2023-01-06T12:13:01.825Z,12.70
2023-01-06T12:15:32.734Z,12.70
2023-01-06T12:18:05.230Z,12.70
2023-01-06T12:20:36.631Z,12.70
2023-01-06T12:23:10.823Z,12.80
2023-01-06T12:25:43.302Z,12.80
2023-01-06T12:28:16.892Z,12.80
2023-01-06T12:30:51.804Z,12.90
2023-01-06T12:33:25.304Z,13.00
2023-01-06T12:35:57.461Z,12.90
2023-01-06T12:38:40.348Z,12.80
2023-01-06T12:41:16.912Z,12.70
2023-01-06T12:43:51.257Z,12.60
2023-01-06T12:46:23.399Z,12.60
2023-01-06T12:48:55.388Z,12.60
2023-01-06T12:51:28.339Z,12.70
2023-01-06T12:54:03.188Z,12.60
2023-01-06T12:56:48.996Z,12.70
2023-01-06T12:59:25.607Z,12.70
2023-01-06T13:02:00.984Z,12.80
2023-01-06T13:04:58.873Z,12.90
2023-01-06T13:07:37.322Z,13.10
2023-01-06T13:10:22.354Z,13.10
2023-01-06T13:13:10.426Z,13.10
2023-01-06T13:15:44.132Z,13.10
2023-01-06T13:18:17.322Z,13.00
2023-01-06T13:20:49.872Z,13.00
2023-01-06T13:23:35.578Z,13.00
2023-01-06T13:26:26.809Z,13.10
2023-01-06T13:29:03.257Z,13.00
2023-01-06T13:32:01.825Z,12.90
2023-01-06T13:35:05.344Z,12.80
2023-01-06T13:37:37.759Z,12.80
2023-01-06T13:40:12.391Z,12.80
2023-01-06T13:42:46.728Z,12.80
2023-01-06T13:45:19.619Z,12.90
2023-01-06T13:47:49.078Z,12.90
2023-01-06T13:50:20.782Z,12.90
2023-01-06T13:52:49.796Z,13.00
2023-01-06T13:55:28.501Z,12.90
2023-01-06T13:57:58.946Z,12.90
2023-01-06T14:00:28.737Z,12.80
2023-01-06T14:03:25.801Z,12.80
2023-01-06T14:05:58.517Z,12.80
2023-01-06T14:08:37.596Z,12.80
2023-01-06T14:11:25.782Z,12.70
2023-01-06T14:13:57.559Z,12.60
2023-01-06T14:16:41.265Z,12.60
2023-01-06T14:19:15.953Z,12.60
2023-01-06T14:21:44.853Z,12.60
2023-01-06T14:24:23.800Z,12.50
2023-01-06T14:26:55.716Z,12.50
2023-01-06T14:30:03.644Z,12.60
2023-01-06T14:33:11.661Z,12.60
2023-01-06T14:35:44.185Z,12.60
2023-01-06T14:38:35.977Z,12.60
2023-01-06T14:41:07.332Z,12.60
2023-01-06T14:43:43.831Z,12.60
2023-01-06T14:46:19.755Z,12.60
2023-01-06T14:48:56.316Z,12.60
2023-01-06T14:51:25.538Z,12.50
2023-01-06T14:54:04.152Z,12.60
2023-01-06T14:56:34.158Z,12.60
2023-01-06T14:59:13.551Z,12.60
2023-01-06T15:01:45.199Z,12.60
2023-01-06T15:04:30.096Z,12.60
2023-01-06T15:07:00.434Z,12.60
2023-01-06T15:09:29.140Z,12.60
2023-01-06T15:11:57.194Z,12.60
2023-01-06T15:14:30.485Z,12.60
2023-01-06T15:17:03.450Z,12.60
2023-01-06T15:19:31.942Z,12.60
2023-01-06T15:22:01.913Z,12.60
2023-01-06T15:24:32.619Z,12.60
2023-01-06T15:27:06.072Z,12.60
2023-01-06T15:29:34.632Z,12.60
2023-01-06T15:32:05.391Z,12.60
2023-01-06T15:34:36.671Z,12.50
2023-01-06T15:37:08.083Z,12.60
2023-01-06T15:39:38.131Z,12.50
2023-01-06T15:42:09.920Z,12.60
2023-01-06T15:44:40.678Z,12.60
2023-01-06T15:47:26.132Z,12.60
2023-01-06T15:49:56.693Z,12.60
2023-01-06T15:52:27.588Z,12.60
2023-01-06T15:54:59.132Z,12.60
2023-01-06T15:57:30.055Z,12.60
2023-01-06T16:00:01.764Z,12.50
2023-01-06T16:02:35.012Z,12.60
2023-01-06T16:05:03.469Z,12.50
2023-01-06T16:07:40.650Z,12.50
2023-01-06T16:10:30.929Z,12.50
2023-01-06T16:13:24.209Z,12.50
2023-01-06T16:15:55.816Z,12.50
2023-01-06T16:18:31.205Z,12.50
2023-01-06T16:21:01.256Z,12.50
2023-01-06T16:23:33.535Z,12.50
2023-01-06T16:26:12.580Z,12.40
2023-01-06T16:28:46.673Z,12.50
2023-01-06T16:31:27.955Z,12.50
2023-01-06T16:33:57.637Z,12.50
2023-01-06T16:36:26.237Z,12.40
2023-01-06T16:38:54.217Z,12.40
2023-01-06T16:41:22.790Z,12.30
2023-01-06T16:43:50.930Z,12.30
2023-01-06T16:46:22.066Z,12.30
2023-01-06T16:48:52.953Z,12.30
2023-01-06T16:51:22.960Z,12.30
2023-01-06T16:53:51.047Z,12.30
2023-01-06T16:56:22.540Z,12.40
2023-01-06T16:58:51.342Z,12.30
2023-01-06T17:01:21.968Z,12.30
2023-01-06T17:03:54.469Z,12.30
2023-01-06T17:06:26.787Z,12.40
2023-01-06T17:08:57.871Z,12.30
2023-01-06T17:11:29.206Z,12.30
2023-01-06T17:13:59.536Z,12.30
2023-01-06T17:16:33.423Z,12.40
2023-01-06T17:19:03.456Z,12.40
2023-01-06T17:21:37.249Z,12.30
2023-01-06T17:24:12.952Z,12.30
2023-01-06T17:26:41.724Z,12.30
2023-01-06T17:29:15.314Z,12.30
2023-01-06T17:31:45.813Z,12.30
2023-01-06T17:34:16.887Z,12.30
2023-01-06T17:36:48.311Z,12.30
2023-01-06T17:39:22.225Z,12.30
2023-01-06T17:41:51.037Z,12.30
2023-01-06T17:44:20.605Z,12.20
2023-01-06T17:46:48.663Z,12.30
2023-01-06T17:49:36.270Z,12.30
2023-01-06T17:52:17.162Z,12.40
2023-01-06T17:55:11.100Z,12.40
2023-01-06T17:57:41.373Z,12.40
2023-01-06T18:00:20.317Z,12.40
2023-01-06T18:02:50.045Z,12.40
2023-01-06T18:06:07.077Z,12.30
2023-01-06T18:08:39.257Z,12.30
2023-01-06T18:11:26.576Z,12.30
2023-01-06T18:13:55.178Z,12.30
2023-01-06T18:16:30.103Z,12.30
2023-01-06T18:19:25.868Z,12.30
2023-01-06T18:21:54.593Z,12.30
2023-01-06T18:24:31.623Z,12.30
2023-01-06T18:27:01.355Z,12.30
2023-01-06T18:29:36.331Z,12.30
2023-01-06T18:32:29.784Z,12.30
2023-01-06T18:34:59.271Z,12.30
2023-01-06T18:37:29.122Z,12.20
2023-01-06T18:40:01.477Z,12.30
2023-01-06T18:42:33.789Z,12.30
2023-01-06T18:45:14.675Z,12.30
2023-01-06T18:47:44.045Z,12.30
2023-01-06T18:50:36.983Z,12.30
2023-01-06T18:53:19.458Z,12.30
2023-01-06T18:55:51.226Z,12.30
2023-01-06T18:58:37.456Z,12.30
2023-01-06T19:01:17.960Z,12.30
2023-01-06T19:03:57.243Z,12.30
2023-01-06T19:06:38.968Z,12.40
2023-01-06T19:09:30.414Z,12.40
2023-01-06T19:12:29.989Z,12.30
2023-01-06T19:15:02.186Z,12.30
2023-01-06T19:17:32.711Z,12.30
2023-01-06T19:20:03.151Z,12.30
2023-01-06T19:22:34.196Z,12.30
2023-01-06T19:25:04.423Z,12.30
2023-01-06T19:27:43.467Z,12.30
2023-01-06T19:30:45.737Z,12.40
2023-01-06T19:33:24.326Z,12.40
2023-01-06T19:35:53.328Z,12.40
2023-01-06T19:38:26.497Z,12.40
2023-01-06T19:40:55.957Z,12.40
2023-01-06T19:43:29.819Z,12.50
2023-01-06T19:45:58.184Z,12.50
2023-01-06T19:48:30.375Z,12.40
2023-01-06T19:51:06.922Z,12.40
2023-01-06T19:53:42.677Z,12.40
2023-01-06T19:56:18.272Z,12.40
2023-01-06T19:58:52.530Z,12.50
2023-01-06T20:01:22.285Z,12.50
2023-01-06T20:03:53.480Z,12.50
2023-01-06T20:06:22.277Z,12.40
2023-01-06T20:08:53.214Z,12.40
2023-01-06T20:11:22.900Z,12.50
2023-01-06T20:13:52.400Z,12.50
2023-01-06T20:16:20.564Z,12.50
2023-01-06T20:18:50.540Z,12.50
2023-01-06T20:21:18.687Z,12.50
2023-01-06T20:23:46.705Z,12.50
2023-01-06T20:26:14.771Z,12.40
2023-01-06T20:28:42.752Z,12.40
2023-01-06T20:31:12.413Z,12.40
2023-01-06T20:33:40.806Z,12.40
2023-01-06T20:36:09.299Z,12.40
2023-01-06T20:38:37.449Z,12.40
2023-01-06T20:41:06.667Z,12.40
2023-01-06T20:43:34.997Z,12.40
2023-01-06T20:46:03.119Z,12.40
2023-01-06T20:48:32.647Z,12.40
2023-01-06T20:51:01.056Z,12.40
2023-01-06T20:53:29.089Z,12.40
2023-01-06T20:55:57.119Z,12.40
2023-01-06T20:58:25.125Z,12.40
2023-01-06T21:00:53.191Z,12.40
2023-01-06T21:03:21.243Z,12.30
2023-01-06T21:05:50.750Z,12.30
2023-01-06T21:08:18.750Z,12.30
2023-01-06T21:10:46.751Z,12.30
2023-01-06T21:13:15.102Z,12.30
2023-01-06T21:15:43.271Z,12.20
2023-01-06T21:18:11.432Z,12.20
2023-01-06T21:20:39.593Z,12.20
2023-01-06T21:23:10.038Z,12.20
2023-01-06T21:25:38.234Z,12.20
2023-01-06T21:28:06.565Z,12.20
2023-01-06T21:30:34.776Z,12.20
2023-01-06T21:33:02.935Z,12.20
2023-01-06T21:35:31.032Z,12.20
2023-01-06T21:37:59.190Z,12.20
2023-01-06T21:40:30.284Z,12.20
2023-01-06T21:43:10.459Z,12.20
2023-01-06T21:45:39.355Z,12.30
2023-01-06T21:48:08.514Z,12.20
2023-01-06T21:50:39.016Z,12.20
2023-01-06T21:53:08.776Z,12.30
2023-01-06T21:55:38.806Z,12.30
2023-01-06T21:58:06.965Z,12.30
2023-01-06T22:00:35.193Z,12.40
2023-01-06T22:03:03.394Z,12.40
2023-01-06T22:05:31.531Z,12.40
2023-01-06T22:07:59.667Z,12.40
2023-01-06T22:10:28.182Z,12.40
2023-01-06T22:12:59.691Z,12.40
2023-01-06T22:15:29.020Z,12.40
2023-01-06T22:17:59.228Z,12.40
2023-01-06T22:20:28.553Z,12.40
2023-01-06T22:22:56.727Z,12.40
2023-01-06T22:25:25.329Z,12.40
2023-01-06T22:27:53.385Z,12.50
2023-01-06T22:30:22.832Z,12.50
2023-01-06T22:32:50.844Z,12.50
2023-01-06T22:35:19.621Z,12.50
2023-01-06T22:37:47.699Z,12.50
2023-01-06T22:40:16.319Z,12.50
2023-01-06T22:42:45.052Z,12.50
2023-01-06T22:45:13.756Z,12.40
2023-01-06T22:47:43.142Z,12.40
2023-01-06T22:50:11.837Z,12.40
2023-01-06T22:52:40.020Z,12.40
2023-01-06T22:55:09.465Z,12.40
2023-01-06T22:57:37.589Z,12.40
2023-01-06T23:00:11.628Z,12.40
2023-01-06T23:02:40.081Z,12.40
2023-01-06T23:05:10.645Z,12.40
2023-01-06T23:07:40.035Z,12.40
2023-01-06T23:10:10.910Z,12.30
2023-01-06T23:12:40.123Z,12.40
2023-01-06T23:15:09.863Z,12.30
2023-01-06T23:17:38.586Z,12.30
2023-01-06T23:20:07.559Z,12.30
2023-01-06T23:22:37.222Z,12.30
2023-01-06T23:25:05.945Z,12.30
2023-01-06T23:27:33.964Z,12.30
2023-01-06T23:30:02.045Z,12.40
2023-01-06T23:32:30.227Z,12.40
2023-01-06T23:34:58.433Z,12.40
2023-01-06T23:37:26.535Z,12.40
2023-01-06T23:39:55.898Z,12.40
2023-01-06T23:42:23.909Z,12.40
2023-01-06T23:44:52.033Z,12.40
2023-01-06T23:47:20.002Z,12.40
2023-01-06T23:49:48.753Z,12.40
2023-01-06T23:52:16.824Z,12.30
2023-01-06T23:54:44.868Z,12.30
2023-01-06T23:57:16.086Z,12.30
2023-01-06T23:59:44.641Z,12.30
